createdAt,value
2023-05-22T00:02:25.915Z,98442.23
2023-05-22T00:05:27.750Z,98442.36
2023-05-22T00:08:29.943Z,98438.98
2023-05-22T00:11:34.167Z,98434.61
2023-05-22T00:14:35.940Z,98431.20
2023-05-22T00:17:38.157Z,98429.02
2023-05-22T00:20:40.330Z,98430.77
2023-05-22T00:23:42.305Z,98427.77
2023-05-22T00:26:44.062Z,98427.10
2023-05-22T00:29:46.018Z,98422.66
2023-05-22T00:32:47.760Z,98419.50
2023-05-22T00:35:50.806Z,98416.65
2023-05-22T00:38:52.761Z,98415.61
2023-05-22T00:41:54.764Z,98409.05
2023-05-22T00:44:56.503Z,98406.10
2023-05-22T00:47:58.355Z,98407.73
2023-05-22T00:51:00.816Z,98407.02
2023-05-22T00:54:04.347Z,98405.88
2023-05-22T00:57:06.337Z,98402.52
2023-05-22T01:00:12.580Z,98405.48
2023-05-22T01:03:15.316Z,98407.94
2023-05-22T01:06:18.093Z,98404.84
2023-05-22T01:09:19.959Z,98401.13
2023-05-22T01:12:34.771Z,98400.50
2023-05-22T01:16:00.921Z,98394.96
2023-05-22T01:19:08.631Z,98395.20
2023-05-22T01:22:33.406Z,98392.66
2023-05-22T01:25:35.127Z,98385.13
2023-05-22T01:28:39.678Z,98385.33
2023-05-22T01:31:45.145Z,98384.61
2023-05-22T01:34:51.549Z,98384.55
2023-05-22T01:37:54.316Z,98382.55
2023-05-22T01:40:56.217Z,98381.56
2023-05-22T01:43:59.646Z,98385.00
2023-05-22T01:47:04.601Z,98380.52
2023-05-22T01:50:07.591Z,98382.29
2023-05-22T01:53:13.369Z,98382.63
2023-05-22T01:56:30.054Z,98383.23
2023-05-22T01:59:42.964Z,98384.29
2023-05-22T02:02:50.528Z,98381.83
2023-05-22T02:05:55.206Z,98380.45
2023-05-22T02:08:58.424Z,98378.08
2023-05-22T02:12:00.502Z,98380.20
2023-05-22T02:15:05.513Z,98381.46
2023-05-22T02:18:13.657Z,98379.86
2023-05-22T02:21:15.421Z,98380.31
2023-05-22T02:24:17.208Z,98378.95
2023-05-22T02:27:19.226Z,98376.77
2023-05-22T02:30:20.940Z,98376.96
2023-05-22T02:33:24.744Z,98375.17
2023-05-22T02:36:28.240Z,98373.20
2023-05-22T02:39:30.521Z,98372.83
2023-05-22T02:42:33.005Z,98372.04
2023-05-22T02:45:34.807Z,98371.81
2023-05-22T02:48:36.579Z,98366.55
2023-05-22T02:51:38.368Z,98364.86
2023-05-22T02:54:40.457Z,98364.07
2023-05-22T02:57:42.511Z,98362.17
2023-05-22T03:00:44.683Z,98365.36
2023-05-22T03:03:47.716Z,98363.40
2023-05-22T03:06:49.999Z,98361.68
2023-05-22T03:09:52.096Z,98360.50
2023-05-22T03:12:53.907Z,98360.68
2023-05-22T03:15:55.949Z,98360.48
2023-05-22T03:19:16.830Z,98363.27
2023-05-22T03:22:18.887Z,98360.39
2023-05-22T03:25:21.364Z,98359.63
2023-05-22T03:28:23.159Z,98364.10
2023-05-22T03:31:27.709Z,98364.38
2023-05-22T03:34:38.435Z,98363.45
2023-05-22T03:37:41.753Z,98366.33
2023-05-22T03:40:43.780Z,98365.90
2023-05-22T03:43:45.947Z,98366.64
2023-05-22T03:46:48.270Z,98364.92
2023-05-22T03:49:50.315Z,98367.14
2023-05-22T03:52:52.091Z,98365.41
2023-05-22T03:55:53.866Z,98364.92
2023-05-22T03:58:55.673Z,98363.30
2023-05-22T04:02:00.510Z,98365.80
2023-05-22T04:05:02.382Z,98367.54
2023-05-22T04:08:04.753Z,98369.82
2023-05-22T04:11:06.369Z,98368.98
2023-05-22T04:14:08.846Z,98371.22
2023-05-22T04:17:11.228Z,98370.70
2023-05-22T04:20:13.588Z,98372.39
2023-05-22T04:23:15.204Z,98370.34
2023-05-22T04:26:17.524Z,98368.33
2023-05-22T04:29:21.689Z,98368.10
2023-05-22T04:32:23.516Z,98365.61
2023-05-22T04:35:25.641Z,98365.58
2023-05-22T04:38:27.572Z,98361.48
2023-05-22T04:41:30.235Z,98361.52
2023-05-22T04:44:33.794Z,98352.03
2023-05-22T04:47:37.620Z,98354.30
2023-05-22T04:50:41.644Z,98351.01
2023-05-22T04:53:43.649Z,98350.48
2023-05-22T04:56:45.420Z,98355.27
2023-05-22T04:59:47.685Z,98357.27
2023-05-22T05:02:49.951Z,98356.39
2023-05-22T05:05:51.920Z,98359.98
2023-05-22T05:08:54.346Z,98358.20
2023-05-22T05:11:56.359Z,98361.36
2023-05-22T05:14:58.150Z,98361.52
2023-05-22T05:18:00.291Z,98364.02
2023-05-22T05:21:02.014Z,98362.03
2023-05-22T05:24:03.833Z,98360.16
2023-05-22T05:27:05.893Z,98366.52
2023-05-22T05:30:08.074Z,98370.93
2023-05-22T05:33:34.417Z,98369.58
2023-05-22T05:36:56.627Z,98369.17
2023-05-22T05:39:58.699Z,98364.51
2023-05-22T05:43:01.007Z,98361.80
2023-05-22T05:46:04.032Z,98365.08
2023-05-22T05:49:09.622Z,98365.90
2023-05-22T05:52:11.873Z,98366.52
2023-05-22T05:55:13.864Z,98367.37
2023-05-22T05:58:16.230Z,98364.24
2023-05-22T06:01:30.563Z,98367.67
2023-05-22T06:04:33.069Z,98363.31
2023-05-22T06:07:37.461Z,98359.41
2023-05-22T06:10:39.626Z,98360.73
2023-05-22T06:13:50.224Z,98359.39
2023-05-22T06:16:52.093Z,98358.52
2023-05-22T06:19:54.015Z,98356.52
2023-05-22T06:22:56.067Z,98361.66
2023-05-22T06:25:58.277Z,98358.28
2023-05-22T06:29:00.809Z,98352.91
2023-05-22T06:32:03.202Z,98350.27
2023-05-22T06:35:06.587Z,98351.30
2023-05-22T06:38:08.441Z,98346.99
2023-05-22T06:41:10.326Z,98347.45
2023-05-22T06:44:12.457Z,98348.18
2023-05-22T06:47:14.372Z,98349.55
2023-05-22T06:50:16.430Z,98348.55
2023-05-22T06:53:18.322Z,98348.59
2023-05-22T06:56:20.141Z,98342.43
2023-05-22T06:59:30.285Z,98342.01
2023-05-22T07:02:40.952Z,98346.31
2023-05-22T07:05:51.690Z,98343.38
2023-05-22T07:08:53.502Z,98349.46
2023-05-22T07:11:55.373Z,98346.20
2023-05-22T07:14:59.384Z,98343.36
2023-05-22T07:18:03.670Z,98344.41
2023-05-22T07:21:08.471Z,98347.30
2023-05-22T07:24:10.702Z,98347.80
2023-05-22T07:27:15.350Z,98345.11
2023-05-22T07:30:17.668Z,98349.95
2023-05-22T07:33:22.129Z,98351.45
2023-05-22T07:36:24.470Z,98350.38
2023-05-22T07:39:29.043Z,98351.09
2023-05-22T07:42:31.019Z,98348.60
2023-05-22T07:45:35.428Z,98348.59
2023-05-22T07:48:37.973Z,98348.84
2023-05-22T07:51:41.761Z,98349.52
2023-05-22T07:54:45.520Z,98346.68
2023-05-22T07:57:48.720Z,98343.74
2023-05-22T08:00:57.795Z,98347.85
2023-05-22T08:04:00.001Z,98344.73
2023-05-22T08:07:02.059Z,98345.22
2023-05-22T08:10:07.910Z,98345.05
2023-05-22T08:13:16.149Z,98345.60
2023-05-22T08:16:18.121Z,98338.95
2023-05-22T08:19:21.253Z,98334.91
2023-05-22T08:22:23.268Z,98331.70
2023-05-22T08:25:25.119Z,98330.61
2023-05-22T08:28:27.094Z,98328.95
2023-05-22T08:31:28.930Z,98321.83
2023-05-22T08:34:32.369Z,98324.16
2023-05-22T08:37:34.197Z,98327.16
2023-05-22T08:40:38.732Z,98327.23
2023-05-22T08:43:41.339Z,98327.79
2023-05-22T08:46:44.848Z,98325.97
2023-05-22T08:49:51.237Z,98323.90
2023-05-22T08:52:56.913Z,98325.55
2023-05-22T08:55:59.308Z,98320.64
2023-05-22T08:59:01.652Z,98325.02
2023-05-22T09:02:06.660Z,98328.63
2023-05-22T09:05:09.382Z,98321.67
2023-05-22T09:08:19.797Z,98321.79
2023-05-22T09:11:23.895Z,98316.96
2023-05-22T09:14:25.712Z,98317.64
2023-05-22T09:17:27.535Z,98313.95
2023-05-22T09:20:29.609Z,98311.02
2023-05-22T09:23:31.735Z,98310.02
2023-05-22T09:26:34.029Z,98309.76
2023-05-22T09:29:49.072Z,98309.55
2023-05-22T09:32:51.158Z,98310.36
2023-05-22T09:35:53.671Z,98314.55
2023-05-22T09:38:55.874Z,98314.75
2023-05-22T09:42:00.904Z,98315.11
2023-05-22T09:45:07.126Z,98312.05
2023-05-22T09:48:09.758Z,98310.80
2023-05-22T09:51:12.602Z,98314.69
2023-05-22T09:54:15.552Z,98304.84
2023-05-22T09:57:18.974Z,98300.44
2023-05-22T10:00:22.889Z,98301.70
2023-05-22T10:03:26.668Z,98296.34
2023-05-22T10:06:30.926Z,98299.75
2023-05-22T10:09:37.743Z,98292.66
2023-05-22T10:12:44.791Z,98297.52
2023-05-22T10:15:48.497Z,98294.43
2023-05-22T10:18:51.976Z,98287.66
2023-05-22T10:21:56.552Z,98291.40
2023-05-22T10:25:01.486Z,98290.40
2023-05-22T10:28:12.148Z,98287.67
2023-05-22T10:31:31.744Z,98291.95
2023-05-22T10:35:08.261Z,98280.89
2023-05-22T10:38:30.104Z,98280.01
2023-05-22T10:41:34.311Z,98275.48
2023-05-22T10:44:36.156Z,98276.09
2023-05-22T10:47:38.188Z,98271.95
2023-05-22T10:50:52.316Z,98272.86
2023-05-22T10:54:04.760Z,98278.09
2023-05-22T10:57:12.859Z,98278.57
2023-05-22T11:00:15.762Z,98274.55
2023-05-22T11:03:21.097Z,98270.06
2023-05-22T11:06:42.884Z,98268.89
2023-05-22T11:09:47.841Z,98270.67
2023-05-22T11:13:02.528Z,98262.93
2023-05-22T11:16:05.728Z,98262.08
2023-05-22T11:19:22.009Z,98259.79
2023-05-22T11:22:32.200Z,98252.90
2023-05-22T11:25:36.029Z,98251.95
2023-05-22T11:28:38.668Z,98250.81
2023-05-22T11:31:41.040Z,98252.65
2023-05-22T11:34:43.391Z,98252.75
2023-05-22T11:37:46.513Z,98247.06
2023-05-22T11:40:51.381Z,98249.55
2023-05-22T11:43:53.388Z,98254.13
2023-05-22T11:46:55.305Z,98258.91
2023-05-22T11:49:58.059Z,98253.98
2023-05-22T11:53:02.151Z,98256.00
2023-05-22T11:56:05.332Z,98256.28
2023-05-22T11:59:07.222Z,98256.19
2023-05-22T12:02:09.093Z,98256.36
2023-05-22T12:05:11.339Z,98252.84
2023-05-22T12:08:13.201Z,98254.44
2023-05-22T12:11:15.984Z,98256.22
2023-05-22T12:14:17.898Z,98253.31
2023-05-22T12:17:19.626Z,98251.66
2023-05-22T12:20:21.418Z,98251.07
2023-05-22T12:23:24.845Z,98252.33
2023-05-22T12:26:26.643Z,98243.07
2023-05-22T12:29:28.573Z,98239.98
2023-05-22T12:32:30.505Z,98234.34
2023-05-22T12:35:32.269Z,98232.47
2023-05-22T12:38:35.545Z,98231.19
2023-05-22T12:41:38.303Z,98233.05
2023-05-22T12:44:40.166Z,98227.52
2023-05-22T12:47:41.920Z,98226.81
2023-05-22T12:50:44.411Z,98224.74
2023-05-22T12:53:46.271Z,98219.10
2023-05-22T12:56:47.967Z,98209.27
2023-05-22T12:59:49.867Z,98212.33
2023-05-22T13:02:51.791Z,98212.56
2023-05-22T13:05:53.636Z,98213.86
2023-05-22T13:08:55.439Z,98213.58
2023-05-22T13:11:57.369Z,98208.39
2023-05-22T13:14:59.343Z,98209.90
2023-05-22T13:18:01.287Z,98209.18
2023-05-22T13:21:03.017Z,98210.80
2023-05-22T13:24:04.884Z,98209.14
2023-05-22T13:27:06.727Z,98209.14
2023-05-22T13:30:09.381Z,98211.88
2023-05-22T13:33:11.796Z,98209.20
2023-05-22T13:36:13.716Z,98205.40
2023-05-22T13:39:15.616Z,98207.25
2023-05-22T13:42:17.438Z,98209.88
2023-05-22T13:45:19.357Z,98204.20
2023-05-22T13:48:21.576Z,98199.52
2023-05-22T13:51:23.537Z,98201.12
2023-05-22T13:54:25.392Z,98198.48
2023-05-22T13:57:27.110Z,98191.99
2023-05-22T14:00:29.043Z,98196.36
2023-05-22T14:03:30.734Z,98191.45
2023-05-22T14:06:32.817Z,98188.89
2023-05-22T14:09:34.618Z,98184.38
2023-05-22T14:12:36.443Z,98179.60
2023-05-22T14:15:38.261Z,98175.77
2023-05-22T14:18:40.314Z,98174.27
2023-05-22T14:21:42.367Z,98172.38
2023-05-22T14:24:44.524Z,98167.80
2023-05-22T14:27:46.354Z,98166.18
2023-05-22T14:30:48.138Z,98158.83
2023-05-22T14:33:50.241Z,98159.41
2023-05-22T14:36:52.206Z,98155.27
2023-05-22T14:39:53.890Z,98152.99
2023-05-22T14:42:56.046Z,98153.67
2023-05-22T14:45:58.591Z,98147.81
2023-05-22T14:49:00.537Z,98146.33
2023-05-22T14:52:02.536Z,98140.01
2023-05-22T14:55:04.528Z,98139.83
2023-05-22T14:58:06.303Z,98138.08
2023-05-22T15:01:08.261Z,98137.28
2023-05-22T15:04:10.138Z,98136.09
2023-05-22T15:07:11.917Z,98132.85
2023-05-22T15:10:13.739Z,98131.13
2023-05-22T15:13:15.522Z,98135.52
2023-05-22T15:16:17.284Z,98134.17
2023-05-22T15:19:19.251Z,98131.04
2023-05-22T15:22:22.415Z,98128.56
2023-05-22T15:25:24.219Z,98129.02
2023-05-22T15:28:25.971Z,98129.83
2023-05-22T15:31:28.751Z,98129.30
2023-05-22T15:34:30.805Z,98126.88
2023-05-22T15:37:35.910Z,98121.25
2023-05-22T15:40:38.746Z,98117.27
2023-05-22T15:43:40.738Z,98112.46
2023-05-22T15:46:42.718Z,98111.31
2023-05-22T15:49:44.392Z,98112.06
2023-05-22T15:52:46.158Z,98108.86
2023-05-22T15:55:49.250Z,98105.36
2023-05-22T15:58:50.965Z,98106.81
2023-05-22T16:01:52.707Z,98103.61
2023-05-22T16:04:54.566Z,98101.93
2023-05-22T16:07:56.379Z,98100.45
2023-05-22T16:11:00.892Z,98102.13
2023-05-22T16:14:03.426Z,98105.04
2023-05-22T16:17:05.657Z,98098.49
2023-05-22T16:20:08.105Z,98099.27
2023-05-22T16:23:09.870Z,98101.38
2023-05-22T16:26:11.656Z,98097.23
2023-05-22T16:29:14.421Z,98098.60
2023-05-22T16:32:16.301Z,98096.95
2023-05-22T16:35:19.039Z,98097.74
2023-05-22T16:38:20.932Z,98099.73
2023-05-22T16:41:22.739Z,98098.85
2023-05-22T16:44:24.564Z,98101.89
2023-05-22T16:47:26.334Z,98102.77
2023-05-22T16:50:28.845Z,98107.61
2023-05-22T16:53:30.905Z,98107.45
2023-05-22T16:56:33.801Z,98106.12
2023-05-22T16:59:35.660Z,98109.99
2023-05-22T17:02:38.968Z,98113.02
2023-05-22T17:05:41.446Z,98117.39
2023-05-22T17:08:43.618Z,98118.02
2023-05-22T17:11:45.507Z,98118.20
2023-05-22T17:14:47.235Z,98122.89
2023-05-22T17:17:49.037Z,98122.41
2023-05-22T17:20:53.181Z,98122.42
2023-05-22T17:23:55.707Z,98124.19
2023-05-22T17:26:57.411Z,98124.39
2023-05-22T17:29:59.245Z,98124.77
2023-05-22T17:33:02.983Z,98123.14
2023-05-22T17:36:05.203Z,98124.81
2023-05-22T17:39:07.127Z,98123.67
2023-05-22T17:42:10.093Z,98123.80
2023-05-22T17:45:13.703Z,98118.71
2023-05-22T17:48:16.129Z,98118.84
2023-05-22T17:51:18.011Z,98114.38
2023-05-22T17:54:19.770Z,98113.95
2023-05-22T17:57:21.931Z,98115.19
2023-05-22T18:00:23.681Z,98121.45
2023-05-22T18:03:25.892Z,98123.42
2023-05-22T18:06:28.586Z,98122.52
2023-05-22T18:09:30.507Z,98119.94
2023-05-22T18:12:32.509Z,98120.47
2023-05-22T18:15:34.278Z,98119.23
2023-05-22T18:18:36.067Z,98118.47
2023-05-22T18:21:37.779Z,98117.52
2023-05-22T18:24:40.132Z,98113.16
2023-05-22T18:27:41.905Z,98107.04
2023-05-22T18:30:48.880Z,98106.71
2023-05-22T18:33:50.645Z,98104.38
2023-05-22T18:36:52.417Z,98106.61
2023-05-22T18:39:54.219Z,98105.94
2023-05-22T18:42:56.131Z,98112.45
2023-05-22T18:45:58.242Z,98112.91
2023-05-22T18:48:59.942Z,98107.36
2023-05-22T18:52:01.811Z,98106.61
2023-05-22T18:55:04.349Z,98112.42
2023-05-22T18:58:06.166Z,98109.67
2023-05-22T19:01:08.208Z,98112.50
2023-05-22T19:04:10.035Z,98116.27
2023-05-22T19:07:11.881Z,98114.52
2023-05-22T19:10:13.759Z,98113.00
2023-05-22T19:13:15.608Z,98115.39
2023-05-22T19:16:17.508Z,98118.90
2023-05-22T19:19:19.335Z,98119.84
2023-05-22T19:22:21.226Z,98114.31
2023-05-22T19:25:23.298Z,98108.16
2023-05-22T19:28:25.462Z,98106.79
2023-05-22T19:31:28.371Z,98111.39
2023-05-22T19:34:30.215Z,98107.96
2023-05-22T19:37:32.001Z,98110.06
2023-05-22T19:40:33.960Z,98111.98
2023-05-22T19:43:35.808Z,98108.88
2023-05-22T19:46:37.722Z,98108.55
2023-05-22T19:49:39.934Z,98106.90
2023-05-22T19:52:43.076Z,98108.70
2023-05-22T19:55:45.459Z,98111.67
2023-05-22T19:58:47.196Z,98107.92
2023-05-22T20:01:49.971Z,98107.02
2023-05-22T20:04:54.156Z,98105.43
2023-05-22T20:07:57.402Z,98100.50
2023-05-22T20:10:59.361Z,98097.44
2023-05-22T20:14:01.908Z,98096.85
2023-05-22T20:17:03.929Z,98088.16
2023-05-22T20:20:07.263Z,98089.37
2023-05-22T20:23:10.746Z,98089.45
2023-05-22T20:26:12.592Z,98091.58
2023-05-22T20:29:14.539Z,98087.70
2023-05-22T20:32:16.553Z,98084.39
2023-05-22T20:35:19.566Z,98086.83
2023-05-22T20:38:21.828Z,98087.10
2023-05-22T20:41:24.287Z,98088.78
2023-05-22T20:44:26.426Z,98093.95
2023-05-22T20:47:28.045Z,98090.65
2023-05-22T20:50:32.136Z,98086.79
2023-05-22T20:53:33.931Z,98089.59
2023-05-22T20:56:36.980Z,98087.55
2023-05-22T20:59:38.940Z,98088.10
2023-05-22T21:02:40.767Z,98081.06
2023-05-22T21:05:42.580Z,98079.48
2023-05-22T21:08:44.290Z,98082.74
2023-05-22T21:11:46.138Z,98077.20
2023-05-22T21:14:47.873Z,98081.52
2023-05-22T21:17:49.759Z,98082.80
2023-05-22T21:20:52.617Z,98079.41
2023-05-22T21:23:54.530Z,98079.05
2023-05-22T21:26:56.325Z,98081.86
2023-05-22T21:29:58.167Z,98082.77
2023-05-22T21:33:00.569Z,98080.79
2023-05-22T21:36:02.552Z,98075.55
2023-05-22T21:39:04.303Z,98076.12
2023-05-22T21:42:06.570Z,98080.84
2023-05-22T21:45:08.656Z,98083.83
2023-05-22T21:48:10.960Z,98085.13
2023-05-22T21:51:12.757Z,98083.55
2023-05-22T21:54:14.446Z,98076.71
2023-05-22T21:57:16.225Z,98074.04
2023-05-22T22:00:19.015Z,98072.06
2023-05-22T22:03:20.890Z,98070.37
2023-05-22T22:06:23.618Z,98069.54
2023-05-22T22:09:25.302Z,98066.44
2023-05-22T22:12:27.010Z,98063.88
2023-05-22T22:15:29.252Z,98064.58
2023-05-22T22:18:32.305Z,98062.33
2023-05-22T22:21:34.429Z,98061.40
2023-05-22T22:24:36.400Z,98060.45
2023-05-22T22:27:38.109Z,98058.11
2023-05-22T22:30:40.125Z,98056.70
2023-05-22T22:33:41.966Z,98055.66
2023-05-22T22:36:43.827Z,98055.50
2023-05-22T22:39:45.676Z,98052.80
2023-05-22T22:42:47.441Z,98052.15
2023-05-22T22:45:49.268Z,98051.88
2023-05-22T22:48:50.979Z,98046.89
2023-05-22T22:51:53.889Z,98044.30
2023-05-22T22:54:55.671Z,98044.48
2023-05-22T22:57:57.417Z,98042.80
2023-05-22T23:00:59.170Z,98043.64
2023-05-22T23:04:01.125Z,98045.46
2023-05-22T23:07:03.559Z,98046.20
2023-05-22T23:10:06.022Z,98046.50
2023-05-22T23:13:07.970Z,98041.17
2023-05-22T23:16:09.741Z,98035.13
2023-05-22T23:19:13.274Z,98028.77
2023-05-22T23:22:15.046Z,98024.67
2023-05-22T23:25:16.924Z,98016.86
2023-05-22T23:28:18.651Z,98017.08
2023-05-22T23:31:25.173Z,98014.30
2023-05-22T23:34:26.951Z,98011.09
2023-05-22T23:37:28.694Z,98007.59
2023-05-22T23:40:30.432Z,98003.66
2023-05-22T23:43:32.145Z,98002.08
2023-05-22T23:46:35.138Z,97997.14
2023-05-22T23:49:36.912Z,97994.05
2023-05-22T23:52:38.641Z,97990.59
2023-05-22T23:55:40.611Z,97985.68
2023-05-22T23:58:42.557Z,97982.27
